createdAt,value
2018-07-24T00:02:19.184Z,14.83
2018-07-24T00:04:59.320Z,12.37
2018-07-24T00:07:38.581Z,10.53
2018-07-24T00:10:16.696Z,11.13
2018-07-24T00:17:55.101Z,11.83
2018-07-24T00:20:33.699Z,13.00
2018-07-24T00:23:11.630Z,14.37
2018-07-24T00:25:49.646Z,13.40
2018-07-24T00:28:27.328Z,11.73
2018-07-24T00:31:05.021Z,10.07
2018-07-24T00:33:45.839Z,15.30
2018-07-24T00:36:30.345Z,15.87
2018-07-24T00:39:09.103Z,17.63
2018-07-24T00:41:46.604Z,15.20
2018-07-24T00:44:24.719Z,15.10
2018-07-24T00:47:03.544Z,10.97
2018-07-24T00:49:41.811Z,14.63
2018-07-24T00:52:18.885Z,11.67
2018-07-24T00:54:56.729Z,12.17
2018-07-24T00:57:34.210Z,13.53
2018-07-24T01:00:11.798Z,10.70
2018-07-24T01:02:50.066Z,11.83
2018-07-24T01:05:32.296Z,14.77
2018-07-24T01:08:10.272Z,11.20
2018-07-24T01:10:50.561Z,14.40
2018-07-24T01:13:29.231Z,11.87
2018-07-24T01:16:07.699Z,9.67
2018-07-24T01:18:47.318Z,15.37
2018-07-24T01:21:25.425Z,12.83
2018-07-24T01:24:02.847Z,10.87
2018-07-24T01:26:41.438Z,14.30
2018-07-24T01:29:19.811Z,17.93
2018-07-24T01:31:58.228Z,12.73
2018-07-24T01:34:35.715Z,11.83
2018-07-24T01:42:41.979Z,11.67
2018-07-24T01:45:20.058Z,16.23
2018-07-24T01:47:57.787Z,11.43
2018-07-24T01:50:35.810Z,11.77
2018-07-24T01:53:21.140Z,13.03
2018-07-24T01:55:58.164Z,10.73
2018-07-24T01:58:36.433Z,17.37
2018-07-24T02:03:58.313Z,13.23
2018-07-24T02:06:35.431Z,14.30
2018-07-24T02:09:17.523Z,13.40
2018-07-24T02:11:54.850Z,11.97
2018-07-24T02:14:34.298Z,14.07
2018-07-24T02:17:13.327Z,16.57
2018-07-24T02:19:56.521Z,12.07
2018-07-24T02:22:35.169Z,15.00
2018-07-24T02:25:12.993Z,16.13
2018-07-24T02:27:52.295Z,12.63
2018-07-24T02:30:30.442Z,14.07
2018-07-24T02:33:08.885Z,13.03
2018-07-24T02:35:48.368Z,15.47
2018-07-24T02:38:26.123Z,15.53
2018-07-24T02:41:03.975Z,14.17
2018-07-24T02:43:42.224Z,12.30
2018-07-24T02:46:20.696Z,16.40
2018-07-24T02:49:00.239Z,15.20
2018-07-24T02:51:38.901Z,11.43
2018-07-24T02:54:17.329Z,12.10
2018-07-24T02:56:55.852Z,16.60
2018-07-24T02:59:33.513Z,12.07
2018-07-24T03:02:11.511Z,13.77
2018-07-24T03:04:49.100Z,12.40
2018-07-24T03:07:26.699Z,14.50
2018-07-24T03:10:04.207Z,15.53
2018-07-24T03:12:42.322Z,14.37
2018-07-24T03:15:20.964Z,12.90
2018-07-24T03:18:03.398Z,20.13
2018-07-24T03:20:44.394Z,16.53
2018-07-24T03:23:23.355Z,12.20
2018-07-24T03:26:16.221Z,13.50
2018-07-24T03:28:53.772Z,13.57
2018-07-24T03:31:31.376Z,15.73
2018-07-24T03:34:09.580Z,13.27
2018-07-24T03:36:47.293Z,15.17
2018-07-24T03:39:26.458Z,15.47
2018-07-24T03:42:04.766Z,16.27
2018-07-24T03:44:42.420Z,15.63
2018-07-24T03:47:20.313Z,13.67
2018-07-24T03:49:58.421Z,13.57
2018-07-24T03:52:36.156Z,16.27
2018-07-24T03:55:13.971Z,18.70
2018-07-24T03:57:51.307Z,18.37
2018-07-24T04:00:29.742Z,12.07
2018-07-24T04:03:14.010Z,13.17
2018-07-24T04:05:51.841Z,13.43
2018-07-24T04:08:30.169Z,13.40
2018-07-24T04:11:09.903Z,15.77
2018-07-24T04:13:49.794Z,12.10
2018-07-24T04:16:27.784Z,13.40
2018-07-24T04:19:05.834Z,13.27
2018-07-24T04:21:44.310Z,14.10
2018-07-24T04:24:22.483Z,15.37
2018-07-24T04:27:00.336Z,14.13
2018-07-24T04:29:38.269Z,16.93
2018-07-24T04:32:15.973Z,14.23
2018-07-24T04:34:53.495Z,16.97
2018-07-24T04:37:31.576Z,16.43
2018-07-24T04:40:11.279Z,15.90
2018-07-24T04:42:50.426Z,15.83
2018-07-24T04:45:31.004Z,17.53
2018-07-24T04:48:11.006Z,16.67
2018-07-24T04:50:51.221Z,16.30
2018-07-24T04:53:32.128Z,13.67
2018-07-24T04:56:11.256Z,14.53
2018-07-24T04:58:51.583Z,14.80
2018-07-24T05:01:29.426Z,17.17
2018-07-24T05:04:07.022Z,13.17
2018-07-24T05:06:44.155Z,19.03
2018-07-24T05:09:21.855Z,15.00
2018-07-24T05:12:00.439Z,14.17
2018-07-24T05:14:39.973Z,15.20
2018-07-24T05:17:19.118Z,14.33
2018-07-24T05:19:56.798Z,15.33
2018-07-24T05:22:37.237Z,14.70
2018-07-24T05:25:23.250Z,12.50
2018-07-24T05:28:01.353Z,14.63
2018-07-24T05:30:40.818Z,15.57
2018-07-24T05:33:19.022Z,15.70
2018-07-24T05:35:58.870Z,12.87
2018-07-24T05:38:38.991Z,15.93
2018-07-24T05:41:20.036Z,15.83
2018-07-24T05:43:57.952Z,17.57
2018-07-24T05:46:35.727Z,15.13
2018-07-24T05:49:13.241Z,14.47
2018-07-24T05:51:52.849Z,14.03
2018-07-24T05:54:30.282Z,14.70
2018-07-24T05:57:08.901Z,19.00
2018-07-24T05:59:46.658Z,20.13
2018-07-24T06:02:25.662Z,21.13
2018-07-24T06:05:03.095Z,15.27
2018-07-24T06:07:41.113Z,19.60
2018-07-24T06:10:26.274Z,15.43
2018-07-24T06:13:10.639Z,17.40
2018-07-24T06:15:48.470Z,18.30
2018-07-24T06:18:26.414Z,13.40
2018-07-24T06:21:03.727Z,15.20
2018-07-24T06:23:43.048Z,15.93
2018-07-24T06:26:20.300Z,16.40
2018-07-24T06:29:00.140Z,16.20
2018-07-24T06:31:37.588Z,14.50
2018-07-24T06:34:15.485Z,12.97
2018-07-24T06:36:52.563Z,19.57
2018-07-24T06:39:30.131Z,12.53
2018-07-24T06:42:07.598Z,18.00
2018-07-24T06:44:45.530Z,14.27
2018-07-24T06:47:22.784Z,13.60
2018-07-24T06:50:00.457Z,13.07
2018-07-24T06:52:38.975Z,15.47
2018-07-24T06:55:16.597Z,15.40
2018-07-24T06:57:53.839Z,12.83
2018-07-24T07:00:31.987Z,18.47
2018-07-24T07:03:09.720Z,14.67
2018-07-24T07:05:48.320Z,14.23
2018-07-24T07:08:25.854Z,13.90
2018-07-24T07:11:03.521Z,10.30
2018-07-24T07:13:41.176Z,11.43
2018-07-24T07:16:18.694Z,13.10
2018-07-24T07:18:55.915Z,9.27
2018-07-24T07:21:35.460Z,10.53
2018-07-24T07:24:13.102Z,10.63
2018-07-24T07:26:51.077Z,8.80
2018-07-24T07:29:31.394Z,12.90
2018-07-24T07:32:09.046Z,8.20
2018-07-24T07:34:46.652Z,8.00
2018-07-24T07:37:24.924Z,10.90
2018-07-24T07:40:02.752Z,8.60
2018-07-24T07:42:41.354Z,8.00
2018-07-24T07:45:18.736Z,6.77
2018-07-24T07:47:56.842Z,10.63
2018-07-24T07:50:34.352Z,10.13
2018-07-24T07:53:12.674Z,8.70
2018-07-24T07:55:51.320Z,6.90
2018-07-24T07:58:31.242Z,6.47
2018-07-24T08:01:08.464Z,9.53
2018-07-24T08:03:46.251Z,5.93
2018-07-24T08:06:23.598Z,10.80
2018-07-24T08:09:02.359Z,7.77
2018-07-24T08:11:40.438Z,6.93
2018-07-24T08:14:19.248Z,9.27
2018-07-24T08:17:00.780Z,7.83
2018-07-24T08:19:41.144Z,9.57
2018-07-24T08:22:18.728Z,8.03
2018-07-24T08:24:56.967Z,6.23
2018-07-24T08:27:35.385Z,6.77
2018-07-24T08:30:12.989Z,6.93
2018-07-24T08:32:59.095Z,5.53
2018-07-24T08:35:37.287Z,5.07
2018-07-24T08:38:14.854Z,4.60
2018-07-24T08:40:53.270Z,5.67
2018-07-24T08:43:32.640Z,5.30
2018-07-24T08:46:10.456Z,4.97
2018-07-24T08:48:47.728Z,4.60
2018-07-24T08:51:26.493Z,5.07
2018-07-24T08:54:04.429Z,5.13
2018-07-24T08:56:44.685Z,7.03
2018-07-24T08:59:27.618Z,4.50
2018-07-24T09:02:07.778Z,4.67
2018-07-24T09:04:45.292Z,5.10
2018-07-24T09:07:23.975Z,4.60
2018-07-24T09:10:09.806Z,4.80
2018-07-24T09:12:48.219Z,5.33
2018-07-24T09:15:25.947Z,4.97
2018-07-24T09:18:04.131Z,5.00
2018-07-24T09:20:41.751Z,5.00
2018-07-24T09:23:22.186Z,6.03
2018-07-24T09:25:59.678Z,5.37
2018-07-24T09:28:38.344Z,4.60
2018-07-24T09:31:15.471Z,4.33
2018-07-24T09:33:53.206Z,6.60
2018-07-24T09:36:30.750Z,4.40
2018-07-24T09:39:11.296Z,4.60
2018-07-24T09:41:49.263Z,5.63
2018-07-24T09:44:28.536Z,4.37
2018-07-24T09:47:05.798Z,5.33
2018-07-24T09:49:43.356Z,3.97
2018-07-24T09:52:23.333Z,4.37
2018-07-24T09:55:02.234Z,4.40
2018-07-24T09:57:39.476Z,4.10
2018-07-24T10:00:16.971Z,4.63
2018-07-24T10:02:54.980Z,4.53
2018-07-24T10:05:34.490Z,4.30
2018-07-24T10:08:11.781Z,4.93
2018-07-24T10:10:51.579Z,5.90
2018-07-24T10:13:31.997Z,3.70
2018-07-24T10:16:09.899Z,3.90
2018-07-24T10:18:47.764Z,4.27
2018-07-24T10:21:25.420Z,6.73
2018-07-24T10:24:13.897Z,4.20
2018-07-24T10:26:52.459Z,5.53
2018-07-24T10:29:30.121Z,4.10
2018-07-24T10:32:07.746Z,3.43
2018-07-24T10:34:45.005Z,5.03
2018-07-24T10:40:06.261Z,3.90
2018-07-24T10:42:43.781Z,4.23
2018-07-24T10:45:20.802Z,5.07
2018-07-24T10:47:58.839Z,3.80
2018-07-24T10:50:36.786Z,4.87
2018-07-24T10:53:14.753Z,4.30
2018-07-24T10:55:51.868Z,3.97
2018-07-24T10:58:29.512Z,5.13
2018-07-24T11:01:06.369Z,3.67
2018-07-24T11:03:44.845Z,3.97
2018-07-24T11:06:23.143Z,4.87
2018-07-24T11:09:01.911Z,6.00
2018-07-24T11:11:46.176Z,4.00
2018-07-24T11:14:31.672Z,4.00
2018-07-24T11:17:17.657Z,3.83
2018-07-24T11:19:55.458Z,3.40
2018-07-24T11:22:34.590Z,3.50
2018-07-24T11:25:11.838Z,4.27
2018-07-24T11:27:53.934Z,4.13
2018-07-24T11:31:34.755Z,4.13
2018-07-24T11:34:16.604Z,5.63
2018-07-24T11:36:53.835Z,3.93
2018-07-24T11:39:30.411Z,4.33
2018-07-24T11:42:08.320Z,5.40
2018-07-24T11:44:45.350Z,5.83
2018-07-24T11:47:23.595Z,8.33
2018-07-24T11:50:01.538Z,4.70
2018-07-24T11:52:42.819Z,4.57
2018-07-24T11:55:20.482Z,5.53
2018-07-24T11:57:59.343Z,3.40
2018-07-24T12:00:36.452Z,5.30
2018-07-24T12:03:13.815Z,6.03
2018-07-24T12:05:50.630Z,4.13
2018-07-24T12:08:38.183Z,6.27
2018-07-24T12:11:16.995Z,3.77
2018-07-24T12:13:55.765Z,5.27
2018-07-24T12:16:34.748Z,5.43
2018-07-24T12:19:12.392Z,5.00
2018-07-24T12:21:53.364Z,4.70
2018-07-24T12:24:30.786Z,5.70
2018-07-24T12:27:11.681Z,6.17
2018-07-24T12:29:48.959Z,3.77
2018-07-24T12:32:26.345Z,4.40
2018-07-24T12:35:05.233Z,7.17
2018-07-24T12:37:49.336Z,5.70
2018-07-24T12:40:28.084Z,4.40
2018-07-24T12:45:56.689Z,4.30
2018-07-24T12:48:34.841Z,4.73
2018-07-24T12:51:13.304Z,3.23
2018-07-24T12:53:56.633Z,6.07
2018-07-24T12:56:42.216Z,7.33
2018-07-24T12:59:22.453Z,4.23
2018-07-24T13:02:01.687Z,3.50
2018-07-24T13:04:39.569Z,4.73
2018-07-24T13:07:17.414Z,3.17
2018-07-24T13:09:56.059Z,4.07
2018-07-24T13:12:55.956Z,4.23
2018-07-24T13:15:34.254Z,4.90
2018-07-24T13:18:19.315Z,4.23
2018-07-24T13:20:59.168Z,3.17
2018-07-24T13:23:39.853Z,3.13
2018-07-24T13:26:20.865Z,4.03
2018-07-24T13:29:11.828Z,2.97
2018-07-24T13:31:54.224Z,3.43
2018-07-24T13:34:38.459Z,4.80
2018-07-24T13:37:16.500Z,5.37
2018-07-24T13:39:55.050Z,3.83
2018-07-24T13:42:34.333Z,6.23
2018-07-24T13:45:13.319Z,3.87
2018-07-24T13:47:53.653Z,3.70
2018-07-24T13:50:35.258Z,5.50
2018-07-24T13:53:16.761Z,4.40
2018-07-24T13:56:05.674Z,6.93
2018-07-24T13:58:46.081Z,3.30
2018-07-24T14:01:23.704Z,7.70
2018-07-24T14:04:01.165Z,6.10
2018-07-24T14:06:40.050Z,4.03
2018-07-24T14:09:17.245Z,3.47
2018-07-24T14:11:55.743Z,3.67
2018-07-24T14:14:32.549Z,3.13
2018-07-24T14:17:10.943Z,3.50
2018-07-24T14:19:47.762Z,4.00
2018-07-24T14:22:25.432Z,4.33
2018-07-24T14:25:02.906Z,3.70
2018-07-24T14:27:43.789Z,3.37
2018-07-24T14:30:21.240Z,6.37
2018-07-24T14:33:00.480Z,3.37
2018-07-24T14:35:39.694Z,3.97
2018-07-24T14:38:17.077Z,3.67
2018-07-24T14:43:42.572Z,3.60
2018-07-24T14:46:26.088Z,2.87
2018-07-24T14:49:12.643Z,2.97
2018-07-24T14:51:51.157Z,5.83
2018-07-24T14:54:31.034Z,3.83
2018-07-24T14:57:12.275Z,4.87
2018-07-24T14:59:49.781Z,4.33
2018-07-24T15:02:29.284Z,4.20
2018-07-24T15:05:10.202Z,5.00
2018-07-24T15:07:48.293Z,4.23
2018-07-24T15:10:26.752Z,3.90
2018-07-24T15:13:04.557Z,3.27
2018-07-24T15:15:42.107Z,4.60
2018-07-24T15:18:19.858Z,3.83
2018-07-24T15:20:57.857Z,3.57
2018-07-24T15:23:35.902Z,3.57
2018-07-24T15:26:19.384Z,4.00
2018-07-24T15:28:58.553Z,3.00
2018-07-24T15:31:38.968Z,7.10
2018-07-24T15:34:19.566Z,3.10
2018-07-24T15:36:57.802Z,5.30
2018-07-24T15:39:34.850Z,4.53
2018-07-24T15:42:14.261Z,3.40
2018-07-24T15:44:53.337Z,4.47
2018-07-24T15:47:31.392Z,3.43
2018-07-24T15:50:09.637Z,6.23
2018-07-24T15:52:48.129Z,6.20
2018-07-24T15:55:25.871Z,4.00
2018-07-24T15:58:07.553Z,4.57
2018-07-24T16:00:45.295Z,3.73
2018-07-24T16:03:23.891Z,3.53
2018-07-24T16:06:01.706Z,5.77
2018-07-24T16:08:39.487Z,4.07
2018-07-24T16:11:17.773Z,4.10
2018-07-24T16:13:55.613Z,4.87
2018-07-24T16:16:33.273Z,5.47
2018-07-24T16:19:11.092Z,5.65
2018-07-24T16:21:47.954Z,4.78
2018-07-24T16:24:25.318Z,5.08
2018-07-24T16:27:02.370Z,4.85
2018-07-24T16:29:39.986Z,4.20
2018-07-24T16:32:17.377Z,3.83
2018-07-24T16:34:55.324Z,3.70
2018-07-24T16:37:33.083Z,3.95
2018-07-24T16:40:11.540Z,3.40
2018-07-24T16:42:51.379Z,3.25
2018-07-24T16:45:34.153Z,3.83
2018-07-24T16:51:03.478Z,3.00
2018-07-24T16:53:41.019Z,3.22
2018-07-24T16:56:25.436Z,3.22
2018-07-24T16:59:03.752Z,4.28
2018-07-24T17:01:42.965Z,3.15
2018-07-24T17:04:20.239Z,4.10
2018-07-24T17:06:58.060Z,3.12
2018-07-24T17:09:35.402Z,4.03
2018-07-24T17:12:13.208Z,3.65
2018-07-24T17:14:53.263Z,3.47
2018-07-24T17:17:36.516Z,3.72
2018-07-24T17:20:15.158Z,3.30
2018-07-24T17:22:53.025Z,3.15
2018-07-24T17:25:30.192Z,3.00
2018-07-24T17:28:07.585Z,3.75
2018-07-24T17:30:45.542Z,3.83
2018-07-24T17:33:24.632Z,3.75
2018-07-24T17:36:02.188Z,3.17
2018-07-24T17:38:39.959Z,4.10
2018-07-24T17:41:17.711Z,4.58
2018-07-24T17:43:55.782Z,4.75
2018-07-24T17:46:33.391Z,3.85
2018-07-24T17:49:10.997Z,3.85
2018-07-24T17:51:48.674Z,4.22
2018-07-24T17:54:29.655Z,3.65
2018-07-24T17:57:10.326Z,3.70
2018-07-24T17:59:53.460Z,4.25
2018-07-24T18:02:31.383Z,4.85
2018-07-24T18:05:10.970Z,5.25
2018-07-24T18:07:52.215Z,7.35
2018-07-24T18:10:32.391Z,4.00
2018-07-24T18:13:15.668Z,4.53
2018-07-24T18:16:00.099Z,4.75
2018-07-24T18:18:40.761Z,4.50
2018-07-24T18:21:19.482Z,4.60
2018-07-24T18:24:02.904Z,4.33
2018-07-24T18:26:44.684Z,4.15
2018-07-24T18:29:27.081Z,3.67
2018-07-24T18:32:05.922Z,3.15
2018-07-24T18:34:45.688Z,4.08
2018-07-24T18:37:28.629Z,6.12
2018-07-24T18:40:11.519Z,5.35
2018-07-24T18:42:54.118Z,4.75
2018-07-24T18:45:32.919Z,6.53
2018-07-24T18:48:15.837Z,6.40
2018-07-24T18:50:56.694Z,4.17
2018-07-24T18:53:40.190Z,6.03
2018-07-24T18:56:20.991Z,4.80
2018-07-24T18:59:06.164Z,4.37
2018-07-24T19:01:48.009Z,4.50
2018-07-24T19:04:29.451Z,7.10
2018-07-24T19:07:09.319Z,5.40
2018-07-24T19:09:53.275Z,3.80
2018-07-24T19:12:35.548Z,6.30
2018-07-24T19:15:13.165Z,6.97
2018-07-24T19:17:50.210Z,4.43
2018-07-24T19:20:28.743Z,4.63
2018-07-24T19:23:09.716Z,5.17
2018-07-24T19:25:51.281Z,6.00
2018-07-24T19:28:37.793Z,5.20
2018-07-24T19:31:23.181Z,4.53
2018-07-24T19:34:05.373Z,7.70
2018-07-24T19:36:48.845Z,5.47
2018-07-24T19:39:33.059Z,4.70
2018-07-24T19:42:15.355Z,6.60
2018-07-24T19:45:03.426Z,5.00
2018-07-24T19:50:52.809Z,8.13
2018-07-24T19:53:42.576Z,4.73
2018-07-24T19:56:22.860Z,5.23
2018-07-24T19:59:01.642Z,5.90
2018-07-24T20:01:54.391Z,5.63
2018-07-24T20:04:37.950Z,5.60
2018-07-24T20:07:18.527Z,4.77
2018-07-24T20:09:59.249Z,5.47
2018-07-24T20:12:45.076Z,5.30
2018-07-24T20:15:29.075Z,6.17
2018-07-24T20:18:11.528Z,5.77
2018-07-24T20:20:51.908Z,9.73
2018-07-24T20:23:35.910Z,6.07
2018-07-24T20:29:11.576Z,6.90
2018-07-24T20:40:26.394Z,6.30
2018-07-24T20:43:13.418Z,6.53
2018-07-24T20:45:52.960Z,5.33
2018-07-24T20:48:36.254Z,8.87
2018-07-24T20:51:15.756Z,6.30
2018-07-24T20:53:58.390Z,7.13
2018-07-24T20:56:43.482Z,6.33
2018-07-24T20:59:31.755Z,7.77
2018-07-24T21:02:11.177Z,8.43
2018-07-24T21:04:53.867Z,6.30
2018-07-24T21:07:37.457Z,6.73
2018-07-24T21:10:19.091Z,7.50
2018-07-24T21:12:57.429Z,10.73
2018-07-24T21:15:41.302Z,7.50
2018-07-24T21:18:20.019Z,8.57
2018-07-24T21:20:57.146Z,8.37
2018-07-24T21:23:34.633Z,5.90
2018-07-24T21:26:13.108Z,8.30
2018-07-24T21:28:50.617Z,9.07
2018-07-24T21:31:30.934Z,7.37
2018-07-24T21:34:08.591Z,7.77
2018-07-24T21:36:52.234Z,9.17
2018-07-24T21:39:34.348Z,6.33
2018-07-24T21:42:15.719Z,7.10
2018-07-24T21:44:53.507Z,7.03
2018-07-24T21:47:41.442Z,9.27
2018-07-24T21:50:20.321Z,9.53
2018-07-24T21:52:57.411Z,9.07
2018-07-24T21:55:36.813Z,6.87
2018-07-24T21:58:14.358Z,9.33
2018-07-24T22:00:58.889Z,6.43
2018-07-24T22:03:37.158Z,7.83
2018-07-24T22:06:19.686Z,8.37
2018-07-24T22:08:58.968Z,9.23
2018-07-24T22:11:39.848Z,7.30
2018-07-24T22:14:20.470Z,7.67
2018-07-24T22:16:58.886Z,7.67
2018-07-24T22:19:40.193Z,7.83
2018-07-24T22:22:24.538Z,6.93
2018-07-24T22:25:03.362Z,6.23
2018-07-24T22:27:41.025Z,6.17
2018-07-24T22:30:19.179Z,7.30
2018-07-24T22:35:41.641Z,8.13
2018-07-24T22:38:22.815Z,7.17
2018-07-24T22:41:03.280Z,8.27
2018-07-24T22:43:47.941Z,6.60
2018-07-24T22:46:32.731Z,6.47
2018-07-24T22:49:09.923Z,8.23
2018-07-24T22:51:49.364Z,8.10
2018-07-24T22:54:31.978Z,7.60
2018-07-24T22:57:12.500Z,5.70
2018-07-24T22:59:53.693Z,11.17
2018-07-24T23:05:37.676Z,9.17
2018-07-24T23:08:16.688Z,7.47
2018-07-24T23:11:01.357Z,5.70
2018-07-24T23:13:38.862Z,7.97
2018-07-24T23:16:16.501Z,8.00
2018-07-24T23:18:54.374Z,12.77
2018-07-24T23:21:31.160Z,6.40
2018-07-24T23:24:08.615Z,6.37
2018-07-24T23:26:45.838Z,11.70
2018-07-24T23:29:23.757Z,7.50
2018-07-24T23:32:00.424Z,6.70
2018-07-24T23:34:37.526Z,9.57
2018-07-24T23:37:14.230Z,8.33
2018-07-24T23:39:52.196Z,6.90
2018-07-24T23:42:29.998Z,7.83
2018-07-24T23:45:07.506Z,9.90
2018-07-24T23:47:44.291Z,8.07
2018-07-24T23:50:21.642Z,7.93
2018-07-24T23:52:58.239Z,6.67
2018-07-24T23:55:37.179Z,9.37
2018-07-24T23:58:14.789Z,8.27
